Butts AAF (Fort Carson) Air Field
KFCS : now visible

Airfield :











YOU CAN JOIN US ON...

 
LOGIN :

Register | Disclaimer

   EN    FR    IT 

 









Legend :    VFR   Marginal VFR   IFR   Intensive IFR   Very Intensive IFR
Visi :
Ceiling :
>= 8 km
>= 3000ft
5 to 8 km
1000 to 3000 ft
1500m to 5 km
500 to 1000 ft
800 to 1500m
200 to 500 ft
< 800m
< 200 ft
Symbols :   Thunderstorms  Fog  Heavy snow  Heavy precipitations  Wind > 20 kt






- Airport Elevation : 5838 ft


KFCS - Butts AAF (Fort Carson) Air Field

CURRENT METAR :
  • 231358Z AUTO 34020KT 10SM BKN075 05/M04 A2988 RMK AO2 RAE05DZB05E11 SLP123 P0000 T00451045 $

EXPIRED METARs :
  • 231311Z AUTO 35017KT 10SM BKN070 BKN090 05/M03 A2987 RMK AO2 RAE05DZB05E11 SLP120 $
  • 231258Z AUTO 34016KT 10SM -RA BKN070 OVC090 05/M03 A2987 RMK AO2 RAB52 SLP120 P0000 T00521026 $
  • 231252Z AUTO 35017KT 10SM -RA OVC070 05/M03 A2987 RMK AO2 RAB52 SLP120 $
  • 231158Z AUTO 34012KT 10SM BKN070 03/M04 A2987 RMK AO2 RAB31E42DZB42E46 SLP125 P0000 60000 T00321043 10041 20001 55010 $
  • 231146Z AUTO 34012KT 10SM SCT075 03/M04 A2987 RMK AO2 RAB31E42DZB42E46 SLP120 $
  • 231131Z AUTO 36012KT 10SM -RA FEW050 SCT060 SCT120 04/M05 A2986 RMK AO2 RAB31 SLP116 $

TAF AMD TAF KFCS
Valid from the 23 at 14:00 until the 24 at 19:00 UTC


231411Z 2314/2419 35012KT 9999 SCT050 BKN070 QNH2986INS
TEMPO 2314/2317 34025G35KT 6000 -RA 530009
BECMG 2318/2319 02010KT 6000 -RA BKN045 OVC060 QNH2988INS
TEMPO 2319/2321 01015G25KT
BECMG 2403/2404 VRB06KT 9999 NSW FEW200 QNH2990INS
TEMPO 2418/2419 30008KT 6000 -RA BKN100 TX07/2318Z TNM02/2409Z



MET'MAP, your aeronautical weather chart ! - Copyright ORBIFLY December 2007 - Disclaimer

ORBIFLY MET'MAP TEAM :

Programming & Development : Alexandra Zaïnal
Concept & original design : Baudouin d'Aumeries
Assistance for programming : Marc-Olivier Méhu
Technical & hardware support : Manuel Goepfert

Contact : metmap@orbifly.com




SOURCES & CREDITS :

   NOAA       Earth
Advisory